Airfield :
LOGIN :

Register | Disclaimer

   EN    FR    IT 

 










Legend :    VFR   Marginal VFR   IFR   Intensive IFR   Very Intensive IFR
Visi :
Ceiling :
>= 8 km
>= 3000ft
5 to 8 km
1000 to 3000 ft
1500m to 5 km
500 to 1000 ft
800 to 1500m
200 to 500 ft
< 800m
< 200 ft
Symbols :   Thunderstorms  Fog  Heavy snow  Heavy precipitations  Wind > 20 kt
SIGMETs :     Misc.  Thunderstorms  Icing  Turbulence  Mountain Waves  Volcanic Ashes







- Airport Elevation : 194 ft


EBCV - Chièvres

CURRENT METAR :
  • 181825Z AUTO 05010KT 9999 SCT140/// 04/M03 Q1024 BLU

EXPIRED METARs :
  • 181755Z AUTO 06010KT 9999 BKN140/// 04/M02 Q1024 BLU
  • 181725Z AUTO 05009KT 9999 SCT140/// 04/M01 Q1024 BLU
  • 181655Z AUTO 04010KT 9999 NCD 05/M01 Q1024 BLU
  • 181625Z AUTO 04010KT 9999 SCT150/// 05/M01 Q1024 BLU
  • 181555Z AUTO 04009KT 9999 BKN150/// 06/M00 Q1024 BLU

TAF TAF EBCV
Valid from the 18 at 19:00 until the 19 at 07:00 UTC


181541Z 1819/1907 06010KT 9999 FEW140
TEMPO 1902/1907 8000 SCT015 BKN022
PROB30
TEMPO 1904/1907 04012KT 4000 -RA SCT010 BKN015 BY EBWM
No reported NOTAMs for that airfield.



MET'MAP, your aeronautical weather chart ! - Copyright ORBIFLY December 2007 - Disclaimer

ORBIFLY MET'MAP TEAM :

Programming & Development : Alexandra Zaïnal
Concept & Development : Baudouin d'Aumeries
Co-Development & Prog : Marc-Olivier Méhu
Technical & hardware support : Manuel Goepfert

Contact : metmap@orbifly.com




SOURCES & CREDITS :

   NOAA